Time;durP1;ratioP1;P1;durP2;ratioP2;P2;SDS_P1;SDS_P2;PMS_P1;PMS_P2;Temp;Humidity;BMP_temperature;BMP_pressure;BME280_temperature;BME280_humidity;BME280_pressure;Samples;Min_cycle;Max_cycle;Signal;HPM_P1;HPM_P2
2023/09/15 00:00:40;;;;;;;7.27;3.90;;;19.90;99.90;;;;;;5017827;28;20264;-76
2023/09/15 00:03:06;;;;;;;5.47;4.20;;;20.10;99.90;;;;;;5017601;28;20542;-80
2023/09/15 00:05:33;;;;;;;5.27;3.60;;;20.20;99.90;;;;;;5015227;28;20182;-80
2023/09/15 00:08:04;;;;;;;6.07;4.00;;;20.20;99.90;;;;;;5014314;28;20265;-79
2023/09/15 00:10:31;;;;;;;6.50;3.90;;;20.20;99.90;;;;;;5014075;28;20190;-80
2023/09/15 00:12:58;;;;;;;7.13;3.97;;;20.10;99.90;;;;;;5014362;28;20215;-79
2023/09/15 00:15:24;;;;;;;6.57;4.03;;;20.10;99.90;;;;;;5014555;28;20221;-79
2023/09/15 00:17:54;;;;;;;6.57;3.43;;;20.10;99.90;;;;;;5015311;28;20179;-83
2023/09/15 00:20:20;;;;;;;6.30;3.60;;;20.10;99.90;;;;;;5014119;28;20201;-84
2023/09/15 00:22:51;;;;;;;4.60;3.70;;;20.00;99.90;;;;;;5015790;28;20178;-84
2023/09/15 00:25:28;;;;;;;4.87;3.30;;;20.00;99.90;;;;;;5013951;28;20174;-80
2023/09/15 00:27:59;;;;;;;5.93;3.90;;;20.00;99.90;;;;;;5015267;28;20304;-85
2023/09/15 00:30:27;;;;;;;5.50;3.63;;;20.20;99.90;;;;;;5014985;28;20173;-83
2023/09/15 00:32:54;;;;;;;6.20;3.90;;;20.20;99.90;;;;;;5013801;28;20217;-84
2023/09/15 00:35:23;;;;;;;6.10;4.20;;;20.10;99.90;;;;;;5015313;28;20262;-83
2023/09/15 00:37:49;;;;;;;5.40;3.97;;;20.20;99.90;;;;;;5015352;28;20658;-82
2023/09/15 00:40:17;;;;;;;5.57;3.63;;;20.10;99.90;;;;;;5014709;28;20179;-85
2023/09/15 00:42:48;;;;;;;6.53;4.40;;;20.10;99.90;;;;;;5014144;28;20615;-84
2023/09/15 00:45:14;;;;;;;6.37;4.27;;;20.20;99.90;;;;;;5014437;28;20228;-85
2023/09/15 00:48:07;;;;;;;4.77;4.03;;;20.10;99.90;;;;;;5014154;28;20177;-82
2023/09/15 00:50:33;;;;;;;5.97;4.37;;;20.20;99.90;;;;;;5012682;28;20191;-83
2023/09/15 00:53:08;;;;;;;5.03;3.83;;;20.00;99.90;;;;;;5015082;28;20211;-84
2023/09/15 00:55:35;;;;;;;5.57;4.47;;;19.90;99.90;;;;;;5015157;28;20204;-84
2023/09/15 00:58:03;;;;;;;5.10;3.90;;;19.90;99.90;;;;;;5015646;28;20178;-85
2023/09/15 01:00:30;;;;;;;5.47;4.43;;;20.00;99.90;;;;;;5016138;28;20582;-85
2023/09/15 01:02:56;;;;;;;5.33;4.00;;;20.10;99.90;;;;;;5014879;28;20191;-85
2023/09/15 01:05:24;;;;;;;5.43;4.00;;;20.00;99.90;;;;;;5015461;28;20242;-84
2023/09/15 01:07:53;;;;;;;4.70;3.83;;;20.00;99.90;;;;;;5014467;28;20323;-83
2023/09/15 01:10:20;;;;;;;5.20;3.90;;;19.80;99.90;;;;;;5015126;28;20261;-82
2023/09/15 01:12:51;;;;;;;6.73;4.20;;;19.70;99.90;;;;;;5014958;28;20721;-84
2023/09/15 01:15:17;;;;;;;6.33;4.50;;;19.60;99.90;;;;;;5015683;28;20170;-85
2023/09/15 01:18:04;;;;;;;6.87;4.73;;;19.50;99.90;;;;;;5014996;28;20190;-84
2023/09/15 01:20:57;;;;;;;6.67;4.23;;;19.40;99.90;;;;;;5015508;28;20224;-84
2023/09/15 01:24:00;;;;;;;4.40;3.50;;;19.30;1.00;;;;;;5017771;28;20250;-84
2023/09/15 01:27:12;;;;;;;6.40;4.33;;;19.40;99.90;;;;;;5030155;28;20166;-79
2023/09/15 01:29:54;;;;;;;6.20;4.40;;;19.40;1.00;;;;;;5036309;28;20189;-82
2023/09/15 01:32:22;;;;;;;7.53;4.93;;;19.40;1.00;;;;;;5034647;28;20249;-81
2023/09/15 01:34:51;;;;;;;7.07;5.17;;;19.30;1.00;;;;;;5032702;28;20172;-81
2023/09/15 01:37:17;;;;;;;6.40;4.53;;;19.30;1.00;;;;;;5018408;28;20178;-84
2023/09/15 01:39:42;;;;;;;7.07;4.50;;;19.20;1.00;;;;;;5017631;28;20186;-84
2023/09/15 01:42:09;;;;;;;5.03;4.03;;;19.00;1.00;;;;;;5018065;28;20177;-84
2023/09/15 01:44:34;;;;;;;5.70;4.10;;;18.90;1.00;;;;;;5016906;28;20704;-85
2023/09/15 01:47:00;;;;;;;6.00;4.27;;;18.80;1.00;;;;;;5018272;28;20170;-84
2023/09/15 01:49:27;;;;;;;5.00;4.47;;;18.60;1.00;;;;;;5024394;28;20185;-82
2023/09/15 01:51:55;;;;;;;6.93;4.90;;;18.60;1.00;;;;;;5040572;28;20273;-82
2023/09/15 01:54:21;;;;;;;6.57;4.43;;;18.50;1.00;;;;;;5035618;28;20205;-85
2023/09/15 01:56:50;;;;;;;6.47;4.67;;;18.40;1.00;;;;;;5023560;28;20212;-84
2023/09/15 01:59:36;;;;;;;7.53;4.53;;;18.50;1.00;;;;;;5020704;28;20177;-83
2023/09/15 02:02:02;;;;;;;5.33;4.40;;;18.30;1.00;;;;;;5017654;28;20195;-85
2023/09/15 02:04:27;;;;;;;6.77;5.13;;;18.40;1.00;;;;;;5018289;28;20199;-84
2023/09/15 02:06:53;;;;;;;6.37;4.80;;;18.40;1.00;;;;;;5017818;28;20177;-83
2023/09/15 02:09:19;;;;;;;6.47;4.57;;;18.40;1.00;;;;;;5018245;28;20183;-84
2023/09/15 02:11:44;;;;;;;7.63;4.50;;;18.20;1.00;;;;;;5017929;28;20748;-85
2023/09/15 02:14:11;;;;;;;7.80;4.80;;;18.10;1.00;;;;;;5018192;28;20185;-82
2023/09/15 02:16:37;;;;;;;8.07;4.83;;;17.90;1.00;;;;;;5016308;28;20604;-84
2023/09/15 02:19:06;;;;;;;6.70;5.30;;;17.90;1.00;;;;;;5017893;28;20189;-83
2023/09/15 02:21:31;;;;;;;7.07;4.90;;;17.90;1.00;;;;;;5017342;28;20219;-80
2023/09/15 02:23:57;;;;;;;6.30;4.70;;;17.90;1.00;;;;;;5016324;28;20174;-79
2023/09/15 02:26:23;;;;;;;6.63;4.93;;;17.90;1.00;;;;;;5015769;28;20247;-79
2023/09/15 02:28:50;;;;;;;8.00;4.50;;;17.90;1.00;;;;;;5015910;28;20628;-80
2023/09/15 02:31:16;;;;;;;7.47;4.60;;;17.70;1.00;;;;;;5015817;28;20663;-78
2023/09/15 02:33:41;;;;;;;6.63;5.00;;;17.60;1.00;;;;;;5015811;28;20272;-78
2023/09/15 02:36:07;;;;;;;8.73;4.97;;;17.50;1.00;;;;;;5016501;28;20508;-79
2023/09/15 02:38:34;;;;;;;10.50;4.70;;;17.40;1.00;;;;;;5017065;28;20534;-78
2023/09/15 02:41:00;;;;;;;7.97;4.70;;;17.30;1.00;;;;;;5035503;28;20187;-78
2023/09/15 02:43:26;;;;;;;5.67;4.67;;;17.30;1.00;;;;;;5027726;28;20177;-79
2023/09/15 02:46:04;;;;;;;8.07;4.97;;;17.10;1.00;;;;;;5023104;28;20221;-79
2023/09/15 02:48:36;;;;;;;11.33;5.13;;;16.90;1.00;;;;;;5019235;28;20231;-79
2023/09/15 02:51:04;;;;;;;7.50;5.47;;;16.90;1.00;;;;;;5017405;28;20161;-79
2023/09/15 02:53:30;;;;;;;9.17;4.83;;;16.90;1.00;;;;;;5016263;28;20657;-78
2023/09/15 02:55:57;;;;;;;9.30;5.70;;;16.90;1.00;;;;;;5015209;28;20284;-79
2023/09/15 02:58:23;;;;;;;7.80;5.13;;;16.80;1.00;;;;;;5015134;28;20174;-78
2023/09/15 03:00:49;;;;;;;7.30;4.90;;;16.60;1.00;;;;;;5015345;28;20180;-78
2023/09/15 03:03:14;;;;;;;6.53;4.50;;;16.60;2.10;;;;;;5013711;28;20182;-78
2023/09/15 03:05:40;;;;;;;8.30;4.80;;;16.60;3.60;;;;;;5015168;28;20654;-78
2023/09/15 03:08:05;;;;;;;6.87;4.63;;;16.70;5.50;;;;;;5015399;28;20636;-79
2023/09/15 03:10:34;;;;;;;6.27;4.93;;;16.70;3.20;;;;;;5014709;28;20231;-78
2023/09/15 03:13:02;;;;;;;8.03;4.93;;;16.80;3.10;;;;;;5015638;28;20199;-79
2023/09/15 03:15:28;;;;;;;6.90;5.20;;;16.80;1.00;;;;;;5015116;28;20165;-79
2023/09/15 03:17:53;;;;;;;7.93;5.47;;;16.80;1.00;;;;;;5015062;28;20306;-79
2023/09/15 03:20:21;;;;;;;6.93;5.50;;;17.00;1.00;;;;;;5014873;28;20700;-80
2023/09/15 03:22:46;;;;;;;7.47;4.90;;;17.00;1.00;;;;;;5018028;28;20154;-82
2023/09/15 03:25:14;;;;;;;9.03;5.13;;;16.90;1.00;;;;;;5022525;28;20228;-82
2023/09/15 03:27:40;;;;;;;7.90;5.37;;;17.00;1.00;;;;;;5017646;28;20208;-83
2023/09/15 03:30:06;;;;;;;7.23;4.90;;;17.00;1.00;;;;;;5016414;28;20178;-85
2023/09/15 03:32:33;;;;;;;9.23;4.90;;;17.00;1.00;;;;;;5016970;28;20206;-81
2023/09/15 03:34:59;;;;;;;5.80;4.73;;;17.10;1.00;;;;;;5016551;28;20172;-84
2023/09/15 03:37:25;;;;;;;7.03;5.20;;;17.20;1.00;;;;;;5016944;28;20194;-84
2023/09/15 03:39:51;;;;;;;6.00;5.10;;;17.30;1.00;;;;;;5014879;28;20269;-84
2023/09/15 03:42:17;;;;;;;10.93;5.80;;;17.40;1.00;;;;;;5016673;28;20592;-84
2023/09/15 03:44:43;;;;;;;7.47;4.93;;;17.40;1.00;;;;;;5015454;28;20175;-83
2023/09/15 03:47:09;;;;;;;7.50;4.97;;;17.40;1.00;;;;;;5016707;28;20265;-84
2023/09/15 03:49:35;;;;;;;7.17;4.80;;;17.30;1.00;;;;;;5014310;28;20175;-79
2023/09/15 03:52:00;;;;;;;9.87;5.20;;;17.30;1.00;;;;;;5014296;28;20215;-78
2023/09/15 03:54:26;;;;;;;8.77;4.73;;;17.20;1.00;;;;;;5013847;28;20709;-81
2023/09/15 03:56:54;;;;;;;7.83;5.30;;;17.40;1.00;;;;;;5014538;28;20172;-79
2023/09/15 03:59:20;;;;;;;7.30;5.17;;;17.30;1.00;;;;;;5014063;28;20401;-79
2023/09/15 04:01:47;;;;;;;11.47;5.77;;;17.40;1.00;;;;;;5014561;28;20185;-78
2023/09/15 04:04:13;;;;;;;8.77;4.83;;;17.50;1.00;;;;;;5013911;28;20179;-79
2023/09/15 04:06:39;;;;;;;6.87;5.47;;;17.40;1.00;;;;;;5014439;28;20166;-79
2023/09/15 04:09:14;;;;;;;7.33;5.17;;;17.50;1.00;;;;;;5014399;28;20229;-79
2023/09/15 04:11:40;;;;;;;9.37;5.50;;;17.50;1.00;;;;;;5014530;28;20674;-78
2023/09/15 04:14:06;;;;;;;7.23;5.20;;;17.60;1.00;;;;;;5014214;28;20168;-79
2023/09/15 04:16:32;;;;;;;8.87;5.53;;;17.60;1.00;;;;;;5013936;28;20227;-79
2023/09/15 04:18:58;;;;;;;11.47;5.27;;;17.70;1.00;;;;;;5012487;28;20266;-78
2023/09/15 04:21:24;;;;;;;6.80;5.37;;;17.70;1.00;;;;;;5013652;28;20182;-81
2023/09/15 04:23:50;;;;;;;8.53;5.50;;;17.80;1.00;;;;;;5013397;28;20171;-79
2023/09/15 04:26:15;;;;;;;7.70;5.80;;;17.90;1.00;;;;;;5012669;28;20178;-80
2023/09/15 04:28:41;;;;;;;7.20;5.13;;;18.00;1.00;;;;;;5013788;28;20202;-80
2023/09/15 04:31:07;;;;;;;8.33;5.83;;;18.00;1.00;;;;;;5013901;28;20171;-81
2023/09/15 04:33:33;;;;;;;8.87;6.00;;;18.00;1.00;;;;;;5013737;28;20174;-81
2023/09/15 04:35:58;;;;;;;7.43;5.57;;;18.00;1.00;;;;;;5014155;28;20249;-79
2023/09/15 04:38:24;;;;;;;10.10;5.73;;;18.00;1.00;;;;;;5014294;28;20184;-80
2023/09/15 04:40:50;;;;;;;11.10;5.53;;;18.10;1.00;;;;;;5014015;28;20683;-80
2023/09/15 04:43:17;;;;;;;7.90;5.67;;;18.10;1.00;;;;;;5014126;28;20508;-80
2023/09/15 04:45:44;;;;;;;8.10;5.33;;;18.00;1.00;;;;;;5014303;28;20184;-79
2023/09/15 04:48:10;;;;;;;10.07;6.13;;;18.10;1.00;;;;;;5015100;28;20257;-78
2023/09/15 04:50:36;;;;;;;9.10;6.00;;;18.00;1.00;;;;;;5033507;28;20185;-82
2023/09/15 04:53:07;;;;;;;8.50;5.50;;;18.00;1.00;;;;;;5021745;28;20267;-82
2023/09/15 04:55:35;;;;;;;7.50;5.27;;;18.10;1.00;;;;;;5014969;28;20660;-85
2023/09/15 04:58:01;;;;;;;7.23;5.50;;;18.20;1.00;;;;;;5012028;28;20658;-84
2023/09/15 05:00:34;;;;;;;8.10;5.73;;;18.20;1.00;;;;;;5015178;28;20173;-85
2023/09/15 05:03:02;;;;;;;9.40;5.73;;;18.20;1.00;;;;;;5014858;28;20639;-83
2023/09/15 05:05:28;;;;;;;9.60;5.07;;;18.20;1.00;;;;;;5013297;28;20179;-85
2023/09/15 05:07:56;;;;;;;9.47;5.03;;;18.20;1.00;;;;;;5013566;28;20165;-82
2023/09/15 05:10:22;;;;;;;11.43;5.53;;;18.20;1.00;;;;;;5013575;28;20174;-81
2023/09/15 05:12:48;;;;;;;11.17;5.50;;;18.30;1.00;;;;;;5025161;28;20707;-79
2023/09/15 05:15:14;;;;;;;10.27;5.60;;;18.30;1.00;;;;;;5033770;28;20165;-83
2023/09/15 05:17:41;;;;;;;9.73;5.03;;;18.30;1.00;;;;;;5020705;28;20234;-82
2023/09/15 05:20:07;;;;;;;9.50;4.90;;;18.30;1.00;;;;;;5018968;28;20606;-82
2023/09/15 05:22:36;;;;;;;11.03;6.10;;;18.30;1.00;;;;;;5017119;28;20176;-79
2023/09/15 05:25:05;;;;;;;12.30;5.67;;;18.30;1.00;;;;;;5017833;28;20558;-80
2023/09/15 05:28:05;;;;;;;7.60;5.13;;;18.30;1.00;;;;;;5017702;28;20182;-84
2023/09/15 05:30:40;;;;;;;8.87;5.20;;;18.30;1.00;;;;;;5017656;28;20173;-85
2023/09/15 05:36:30;;;;;;;12.07;5.17;;;18.30;1.00;;;;;;5009801;28;20188;-84
2023/09/15 05:38:56;;;;;;;10.23;5.77;;;18.20;1.00;;;;;;5016144;28;20202;-80
2023/09/15 05:41:22;;;;;;;9.30;5.57;;;18.20;1.00;;;;;;5017756;28;20162;-84
2023/09/15 05:43:48;;;;;;;13.10;5.37;;;18.20;1.00;;;;;;5016320;28;20189;-83
2023/09/15 05:46:15;;;;;;;11.07;5.23;;;18.20;1.00;;;;;;5017482;28;20172;-84
2023/09/15 05:48:43;;;;;;;10.93;5.50;;;18.20;1.00;;;;;;5016393;28;20240;-82
2023/09/15 05:51:09;;;;;;;10.73;5.27;;;18.20;1.00;;;;;;5017741;28;20178;-82
2023/09/15 05:53:37;;;;;;;10.70;5.47;;;18.30;1.00;;;;;;5016765;28;20271;-82
2023/09/15 05:56:03;;;;;;;15.67;5.60;;;18.30;1.00;;;;;;5018375;28;20196;-86
2023/09/15 05:58:40;;;;;;;7.60;4.97;;;18.30;1.00;;;;;;5017827;28;20538;-84
2023/09/15 06:01:09;;;;;;;11.50;5.30;;;18.30;1.00;;;;;;5020532;28;20169;-85
2023/09/15 06:03:36;;;;;;;11.87;5.73;;;18.30;1.00;;;;;;5017727;28;20178;-86
2023/09/15 06:06:02;;;;;;;11.80;4.73;;;18.40;1.00;;;;;;5017278;28;20176;-83
2023/09/15 06:08:28;;;;;;;14.37;4.70;;;18.30;1.00;;;;;;5017074;28;20200;-83
2023/09/15 06:10:54;;;;;;;11.70;4.97;;;18.40;1.00;;;;;;5017323;28;20166;-87
2023/09/15 06:13:20;;;;;;;11.27;4.87;;;18.40;1.00;;;;;;5010343;28;20257;-84
2023/09/15 06:15:45;;;;;;;9.27;4.93;;;18.40;1.00;;;;;;5015747;28;20184;-84
2023/09/15 06:18:13;;;;;;;13.03;5.30;;;18.40;1.00;;;;;;5016615;28;20605;-82
2023/09/15 06:20:38;;;;;;;10.73;4.93;;;18.50;1.00;;;;;;4996365;28;20277;-83
2023/09/15 06:23:04;;;;;;;11.47;5.37;;;18.60;1.00;;;;;;4996024;28;20201;-83
2023/09/15 06:25:32;;;;;;;10.73;5.27;;;18.70;1.00;;;;;;4998905;28;20617;-84
2023/09/15 06:27:59;;;;;;;10.43;4.67;;;18.80;1.00;;;;;;5011445;28;20170;-86
2023/09/15 06:30:27;;;;;;;12.53;5.10;;;18.80;1.00;;;;;;4999758;28;20186;-84
2023/09/15 06:32:57;;;;;;;11.00;5.77;;;18.90;1.00;;;;;;5000577;28;20209;-85
2023/09/15 06:35:23;;;;;;;15.00;5.27;;;19.10;1.00;;;;;;4999555;28;20167;-85
2023/09/15 06:37:49;;;;;;;8.33;5.43;;;19.10;1.00;;;;;;5000079;28;20189;-83
2023/09/15 06:40:16;;;;;;;7.93;5.10;;;19.20;1.00;;;;;;4999472;28;20715;-84
2023/09/15 06:42:42;;;;;;;11.97;5.10;;;19.30;1.00;;;;;;5001246;28;20171;-85
2023/09/15 06:45:17;;;;;;;9.40;4.97;;;19.40;1.00;;;;;;4998825;28;20282;-86
2023/09/15 06:47:43;;;;;;;10.43;5.00;;;19.40;1.00;;;;;;5002398;28;20175;-82
2023/09/15 06:50:09;;;;;;;11.23;4.87;;;19.40;1.00;;;;;;5006900;28;20275;-87
2023/09/15 06:52:34;;;;;;;11.33;4.20;;;19.50;1.00;;;;;;5002186;28;20282;-85
2023/09/15 06:55:02;;;;;;;13.17;5.50;;;19.50;1.00;;;;;;4999839;28;20195;-85
2023/09/15 06:57:28;;;;;;;13.00;5.20;;;19.50;1.00;;;;;;4998714;28;20199;-88
2023/09/15 06:59:56;;;;;;;12.73;4.90;;;19.60;1.00;;;;;;4996686;28;20186;-86
2023/09/15 07:02:22;;;;;;;14.77;5.90;;;19.90;1.00;;;;;;4999489;28;20325;-85
2023/09/15 07:04:47;;;;;;;15.17;5.47;;;19.90;1.00;;;;;;4998632;28;20228;-86
2023/09/15 07:07:13;;;;;;;15.40;5.83;;;20.00;99.90;;;;;;5000070;28;20189;-87
2023/09/15 07:09:39;;;;;;;13.20;5.17;;;20.00;99.90;;;;;;5001701;28;20174;-86
2023/09/15 07:12:05;;;;;;;17.27;5.70;;;20.20;99.90;;;;;;4999186;28;20214;-87
2023/09/15 07:14:31;;;;;;;11.40;4.97;;;20.30;99.90;;;;;;4998284;28;20211;-87
2023/09/15 07:16:57;;;;;;;13.63;5.50;;;20.30;99.90;;;;;;5000279;28;20259;-87
2023/09/15 07:19:23;;;;;;;14.23;6.47;;;20.30;99.90;;;;;;4999516;28;20205;-87
2023/09/15 07:21:48;;;;;;;10.60;5.67;;;20.40;99.90;;;;;;4998167;28;20205;-87
2023/09/15 07:24:14;;;;;;;8.37;5.70;;;20.50;99.90;;;;;;4998580;28;20185;-86
2023/09/15 07:26:40;;;;;;;10.00;5.67;;;20.50;99.90;;;;;;5000190;28;20200;-87
2023/09/15 07:29:06;;;;;;;13.83;5.80;;;20.60;99.90;;;;;;5000653;28;20523;-87
2023/09/15 07:31:35;;;;;;;14.17;6.53;;;20.60;99.90;;;;;;5000537;28;20299;-87
2023/09/15 07:34:01;;;;;;;11.47;5.97;;;20.80;99.90;;;;;;4998908;28;20296;-86
2023/09/15 07:36:27;;;;;;;13.77;6.40;;;20.80;99.90;;;;;;5001936;28;20174;-82
2023/09/15 07:38:53;;;;;;;12.97;6.37;;;20.80;99.90;;;;;;5000961;28;20184;-83
2023/09/15 07:41:19;;;;;;;12.20;5.97;;;20.90;99.90;;;;;;5001239;28;20177;-85
2023/09/15 07:43:45;;;;;;;13.10;5.50;;;21.00;99.90;;;;;;5004548;28;20199;-81
2023/09/15 07:46:15;;;;;;;15.80;6.13;;;21.10;99.90;;;;;;4998965;28;20634;-85
2023/09/15 07:48:44;;;;;;;11.67;5.47;;;21.20;99.90;;;;;;4997659;28;20189;-84
2023/09/15 07:51:11;;;;;;;16.27;6.43;;;21.30;99.90;;;;;;4997226;28;20196;-84
2023/09/15 07:53:37;;;;;;;28.57;8.90;;;21.40;98.80;;;;;;4998685;28;20565;-85
2023/09/15 07:56:03;;;;;;;21.93;8.10;;;21.20;99.90;;;;;;4996943;28;20197;-84
2023/09/15 07:58:29;;;;;;;22.73;7.93;;;20.90;99.90;;;;;;4997594;28;20276;-84
2023/09/15 08:00:57;;;;;;;29.07;8.43;;;20.60;99.90;;;;;;5001648;28;20697;-84
2023/09/15 08:03:22;;;;;;;17.23;7.40;;;20.80;99.90;;;;;;4999268;28;20171;-84
2023/09/15 08:05:48;;;;;;;20.27;7.97;;;20.90;99.90;;;;;;4998641;28;20239;-83
2023/09/15 08:08:14;;;;;;;20.63;7.57;;;20.90;99.90;;;;;;5004608;28;20176;-83
2023/09/15 08:10:40;;;;;;;23.50;7.57;;;20.80;99.90;;;;;;5015279;28;20201;-83
2023/09/15 08:13:06;;;;;;;19.30;7.23;;;21.00;99.90;;;;;;5008503;28;20215;-85
2023/09/15 08:15:31;;;;;;;21.23;7.37;;;21.20;99.90;;;;;;5000022;28;20178;-86
2023/09/15 08:17:59;;;;;;;20.17;8.13;;;21.20;99.90;;;;;;5000357;28;20540;-84
2023/09/15 08:20:26;;;;;;;16.27;7.33;;;21.00;99.90;;;;;;4996187;28;20177;-85
2023/09/15 08:22:52;;;;;;;16.33;7.60;;;20.90;99.90;;;;;;4995281;28;20601;-86
2023/09/15 08:25:18;;;;;;;17.73;6.83;;;21.00;99.90;;;;;;4998043;28;20819;-85
2023/09/15 08:27:46;;;;;;;21.03;7.60;;;21.00;99.90;;;;;;4998229;28;20169;-86
2023/09/15 08:30:13;;;;;;;16.40;7.00;;;21.00;99.90;;;;;;4997995;28;20182;-85
2023/09/15 08:32:39;;;;;;;17.80;6.90;;;21.20;99.90;;;;;;5008881;28;20224;-85
2023/09/15 08:35:05;;;;;;;19.80;7.10;;;21.50;99.90;;;;;;5012084;28;20176;-82
2023/09/15 08:37:32;;;;;;;19.77;6.87;;;21.60;99.90;;;;;;4988938;28;20201;-86
2023/09/15 08:39:59;;;;;;;17.00;6.47;;;21.50;99.90;;;;;;5002105;28;20180;-84
2023/09/15 08:42:29;;;;;;;21.03;6.47;;;21.50;99.90;;;;;;4998645;28;20202;-87
2023/09/15 08:44:58;;;;;;;15.43;5.30;;;21.50;99.90;;;;;;4998456;28;20188;-83
2023/09/15 08:47:27;;;;;;;16.03;6.30;;;21.50;99.90;;;;;;5001712;28;20174;-86
2023/09/15 08:49:53;;;;;;;19.23;5.73;;;21.40;99.90;;;;;;5003065;28;20178;-86
2023/09/15 08:52:20;;;;;;;17.63;6.17;;;21.60;99.90;;;;;;5003017;28;20202;-82
2023/09/15 08:54:50;;;;;;;12.77;5.07;;;21.80;96.50;;;;;;5000114;28;20175;-80
2023/09/15 08:57:16;;;;;;;12.57;4.57;;;21.90;1.00;;;;;;5002505;28;20173;-83
2023/09/15 08:59:43;;;;;;;25.80;6.67;;;21.90;1.00;;;;;;5002362;28;20182;-81
2023/09/15 09:02:14;;;;;;;12.50;4.83;;;21.90;1.00;;;;;;5001944;28;20272;-83
2023/09/15 09:04:40;;;;;;;10.30;4.37;;;21.90;1.00;;;;;;5003036;28;20177;-84
2023/09/15 09:07:08;;;;;;;11.60;4.03;;;22.10;1.00;;;;;;5004674;28;20181;-85
2023/09/15 09:09:34;;;;;;;12.03;3.97;;;22.10;1.00;;;;;;5001218;28;20261;-83
2023/09/15 09:12:00;;;;;;;5.50;2.90;;;22.10;1.00;;;;;;5000216;28;20245;-84
2023/09/15 09:14:26;;;;;;;9.47;2.90;;;22.00;99.90;;;;;;5013958;28;20163;-85
2023/09/15 09:16:53;;;;;;;7.53;3.07;;;22.00;99.90;;;;;;5017153;28;20192;-84
2023/09/15 09:19:19;;;;;;;6.73;3.47;;;22.10;30.00;;;;;;5004391;28;20181;-85
2023/09/15 09:21:48;;;;;;;7.93;3.67;;;22.40;1.00;;;;;;4999063;28;20209;-83
2023/09/15 09:24:14;;;;;;;4.57;2.50;;;22.70;99.90;;;;;;4999664;28;20167;-82
2023/09/15 09:26:59;;;;;;;3.30;1.83;;;22.70;99.90;;;;;;5003241;28;20241;-85
2023/09/15 09:29:49;;;;;;;5.77;3.20;;;22.80;99.90;;;;;;5001235;28;20652;-85
2023/09/15 09:32:15;;;;;;;6.60;3.83;;;22.80;1.00;;;;;;4997152;28;20206;-84
2023/09/15 09:34:41;;;;;;;9.13;2.70;;;22.80;1.00;;;;;;4995330;28;20179;-86
2023/09/15 09:37:08;;;;;;;6.23;2.40;;;23.00;99.90;;;;;;5006204;28;20183;-82
2023/09/15 09:39:35;;;;;;;7.00;2.50;;;23.40;1.00;;;;;;5009809;28;20174;-79
2023/09/15 09:42:02;;;;;;;7.50;2.50;;;23.60;1.00;;;;;;5012842;28;20194;-81
2023/09/15 09:44:29;;;;;;;4.73;2.10;;;23.60;99.90;;;;;;4999545;28;20179;-81
2023/09/15 09:46:56;;;;;;;5.47;2.60;;;23.70;1.00;;;;;;4994268;28;20206;-82
2023/09/15 09:49:23;;;;;;;3.70;1.90;;;23.70;99.90;;;;;;4995921;28;20178;-82
2023/09/15 09:51:52;;;;;;;5.63;2.00;;;23.60;99.90;;;;;;4996424;28;20261;-82
2023/09/15 09:54:50;;;;;;;4.60;2.07;;;23.60;99.90;;;;;;4997202;28;20190;-86
2023/09/15 09:57:16;;;;;;;9.93;2.70;;;23.40;21.90;;;;;;4993723;28;20194;-87
2023/09/15 09:59:44;;;;;;;4.67;2.00;;;23.60;99.90;;;;;;5013492;28;20147;-84
2023/09/15 10:02:11;;;;;;;2.97;1.80;;;23.90;99.90;;;;;;5018511;28;20213;-86
2023/09/15 10:04:37;;;;;;;7.07;2.47;;;24.10;1.00;;;;;;5019802;28;20194;-83
2023/09/15 10:07:04;;;;;;;5.13;2.00;;;24.10;99.90;;;;;;4999878;28;20579;-85
2023/09/15 10:09:32;;;;;;;2.57;1.97;;;24.20;1.00;;;;;;4996009;28;20178;-84
2023/09/15 10:11:58;;;;;;;4.40;1.90;;;23.80;1.00;;;;;;4996203;28;20206;-86
2023/09/15 10:14:27;;;;;;;5.07;2.00;;;23.60;1.00;;;;;;5007953;28;20197;-81
2023/09/15 10:17:20;;;;;;;3.73;1.60;;;23.60;1.00;;;;;;5002651;28;20186;-84
2023/09/15 10:20:06;;;;;;;3.17;1.60;;;23.80;1.00;;;;;;4999232;28;20163;-86
2023/09/15 10:22:33;;;;;;;3.83;1.97;;;24.10;51.50;;;;;;4999317;28;20178;-87
2023/09/15 10:25:01;;;;;;;4.13;1.50;;;24.30;34.20;;;;;;5001665;28;20159;-84
2023/09/15 10:27:30;;;;;;;6.13;1.77;;;24.50;99.90;;;;;;5001993;28;20155;-81
2023/09/15 10:30:15;;;;;;;5.57;1.87;;;24.50;99.90;;;;;;5002284;28;20167;-83
2023/09/15 10:32:43;;;;;;;6.93;1.97;;;24.70;1.00;;;;;;4997793;28;20258;-86
2023/09/15 10:35:54;;;;;;;3.77;1.80;;;24.70;1.00;;;;;;4996768;28;20178;-84
2023/09/15 10:38:29;;;;;;;3.87;1.93;;;24.60;1.00;;;;;;4958248;28;20183;-83
2023/09/15 10:40:58;;;;;;;3.87;2.07;;;24.80;1.00;;;;;;4942266;29;20175;-86
2023/09/15 10:43:24;;;;;;;3.40;2.20;;;25.00;1.00;;;;;;4974434;28;20179;-83
2023/09/15 10:46:02;;;;;;;6.50;2.10;;;24.70;84.30;;;;;;4996586;28;20578;-85
2023/09/15 10:48:46;;;;;;;7.63;2.40;;;24.50;1.00;;;;;;4996608;28;20210;-85
2023/09/15 10:51:18;;;;;;;5.63;2.03;;;24.70;99.90;;;;;;4999174;28;20178;-85
2023/09/15 10:53:56;;;;;;;2.47;1.67;;;24.50;99.90;;;;;;4998380;28;20178;-85
2023/09/15 10:56:24;;;;;;;4.83;2.20;;;24.20;99.90;;;;;;4998878;28;20190;-84
2023/09/15 10:58:50;;;;;;;3.50;1.90;;;24.00;17.20;;;;;;5003924;28;20194;-85
2023/09/15 11:01:17;;;;;;;5.90;2.60;;;23.70;1.00;;;;;;5006262;28;20302;-84
2023/09/15 11:03:44;;;;;;;3.33;2.37;;;23.70;99.90;;;;;;5005825;28;20183;-86
2023/09/15 11:06:16;;;;;;;5.33;2.60;;;24.10;99.90;;;;;;5009856;28;20170;-86
2023/09/15 11:08:42;;;;;;;7.83;2.40;;;24.40;1.00;;;;;;5014698;28;20248;-86
2023/09/15 11:11:11;;;;;;;5.70;2.50;;;24.60;1.00;;;;;;5014021;28;20163;-85
2023/09/15 11:13:40;;;;;;;9.20;2.30;;;24.80;1.00;;;;;;5008050;28;20206;-85
2023/09/15 11:16:07;;;;;;;3.37;2.10;;;24.90;1.00;;;;;;5006187;28;20170;-84
2023/09/15 11:18:36;;;;;;;5.33;2.20;;;25.00;1.00;;;;;;5017815;28;20659;-85
2023/09/15 11:21:05;;;;;;;3.90;2.00;;;25.30;99.90;;;;;;5016553;28;20545;-85
2023/09/15 11:23:31;;;;;;;3.40;1.90;;;25.20;1.00;;;;;;5016675;28;20185;-84
2023/09/15 11:26:06;;;;;;;2.77;1.80;;;24.90;1.00;;;;;;5015425;28;20166;-83
2023/09/15 11:28:38;;;;;;;4.87;2.17;;;25.00;99.90;;;;;;5020027;28;20220;-84
2023/09/15 11:31:08;;;;;;;6.07;2.27;;;25.20;1.00;;;;;;5033818;28;20163;-86
2023/09/15 11:33:34;;;;;;;6.00;2.57;;;25.30;1.00;;;;;;5032706;28;20228;-85
2023/09/15 11:36:01;;;;;;;8.33;2.37;;;25.60;99.90;;;;;;5033729;28;20167;-87
2023/09/15 11:38:27;;;;;;;5.30;3.07;;;25.80;99.90;;;;;;5035446;28;20174;-85
2023/09/15 11:40:56;;;;;;;12.00;2.93;;;25.90;99.90;;;;;;5032323;28;20216;-85
2023/09/15 11:43:25;;;;;;;9.23;2.50;;;26.10;99.90;;;;;;5034446;28;20190;-86
2023/09/15 11:45:52;;;;;;;5.70;2.00;;;26.00;99.90;;;;;;5027802;28;20182;-87
2023/09/15 11:48:21;;;;;;;4.30;2.67;;;25.60;99.90;;;;;;5017013;28;20177;-87
2023/09/15 11:50:47;;;;;;;4.20;2.20;;;25.80;99.90;;;;;;5015804;28;20263;-86
2023/09/15 11:53:21;;;;;;;3.80;1.98;;;25.80;6.70;;;;;;5030695;28;20217;-87
2023/09/15 11:55:51;;;;;;;5.60;1.80;;;25.90;1.00;;;;;;5034932;28;20193;-87
2023/09/15 11:58:18;;;;;;;5.03;2.23;;;26.00;1.00;;;;;;5017727;28;20185;-88
2023/09/15 12:00:46;;;;;;;6.40;2.27;;;25.80;5.60;;;;;;5023264;28;20179;-83
2023/09/15 12:03:12;;;;;;;3.97;2.27;;;25.90;99.90;;;;;;5037041;28;20243;-82
2023/09/15 12:05:40;;;;;;;4.80;2.30;;;25.60;99.90;;;;;;5037917;28;20167;-82
2023/09/15 12:08:06;;;;;;;5.43;2.10;;;25.40;1.00;;;;;;5036784;28;20188;-84
2023/09/15 12:10:32;;;;;;;8.67;2.00;;;25.20;99.90;;;;;;5037138;28;20159;-85
2023/09/15 12:12:59;;;;;;;7.10;2.57;;;25.60;99.90;;;;;;5037440;28;20214;-86
2023/09/15 12:15:27;;;;;;;5.90;2.33;;;25.70;99.90;;;;;;5033140;28;20170;-86
2023/09/15 12:17:55;;;;;;;7.43;2.10;;;25.80;1.00;;;;;;5016252;28;20174;-84
2023/09/15 12:20:24;;;;;;;4.50;2.10;;;25.80;1.00;;;;;;5015118;28;20249;-83
2023/09/15 12:22:52;;;;;;;4.10;2.20;;;26.00;1.00;;;;;;5016152;28;20172;-84
2023/09/15 12:25:18;;;;;;;4.90;2.40;;;26.30;99.90;;;;;;5013637;28;20171;-82
2023/09/15 12:27:43;;;;;;;4.33;2.40;;;26.10;1.00;;;;;;5016153;28;20626;-85
2023/09/15 12:30:14;;;;;;;3.03;1.90;;;25.90;44.10;;;;;;5016315;28;20176;-84
2023/09/15 12:32:40;;;;;;;5.00;2.10;;;25.20;99.90;;;;;;5023362;28;20241;-84
2023/09/15 12:35:13;;;;;;;3.50;2.00;;;25.10;1.00;;;;;;5037019;28;20190;-83
2023/09/15 12:37:46;;;;;;;5.43;2.70;;;25.40;8.80;;;;;;5033418;28;20163;-83
2023/09/15 12:40:13;;;;;;;4.27;2.07;;;25.60;1.00;;;;;;5028252;28;20181;-84
2023/09/15 12:42:38;;;;;;;5.60;2.50;;;25.90;1.00;;;;;;5031235;28;20170;-83
2023/09/15 12:45:05;;;;;;;5.87;2.37;;;25.80;1.00;;;;;;5030638;28;20174;-84
2023/09/15 12:47:31;;;;;;;6.13;2.30;;;25.70;1.00;;;;;;5021545;28;20183;-83
2023/09/15 12:49:57;;;;;;;4.15;2.33;;;25.80;1.00;;;;;;5020465;28;20203;-84
2023/09/15 12:52:23;;;;;;;4.10;2.22;;;25.90;1.00;;;;;;5033113;28;20246;-82
2023/09/15 12:54:49;;;;;;;3.87;2.57;;;26.20;99.90;;;;;;5026714;28;20708;-85
2023/09/15 12:57:15;;;;;;;10.02;2.83;;;26.30;33.60;;;;;;5021086;28;20173;-84
2023/09/15 12:59:41;;;;;;;7.53;2.60;;;26.40;1.00;;;;;;5023538;28;20259;-83